Time;durP1;ratioP1;P1;durP2;ratioP2;P2;SDS_P1;SDS_P2;PMS_P1;PMS_P2;Temp;Humidity;BMP_temperature;BMP_pressure;BME280_temperature;BME280_humidity;BME280_pressure;Samples;Min_cycle;Max_cycle;Signal;HPM_P1;HPM_P2
2021/03/20 00:00:56;;;;;;;5.88;3.40;;;;;;;2.72;74.84;101396.38;5045837;28;20057;-73
2021/03/20 00:03:22;;;;;;;6.82;4.82;;;;;;;2.63;75.22;101400.84;5016665;28;20188;-73
2021/03/20 00:05:49;;;;;;;7.47;3.60;;;;;;;2.71;75.48;101401.66;5016662;28;20131;-73
2021/03/20 00:08:18;;;;;;;7.45;3.65;;;;;;;2.70;75.29;101397.28;5016637;28;20054;-73
2021/03/20 00:10:46;;;;;;;5.15;3.13;;;;;;;2.60;75.62;101399.13;5016135;28;20131;-73
2021/03/20 00:13:14;;;;;;;9.45;3.80;;;;;;;2.50;76.00;101400.09;5004773;28;20053;-73
2021/03/20 00:15:40;;;;;;;8.70;3.38;;;;;;;2.46;76.28;101400.97;5006744;28;20046;-73
2021/03/20 00:18:06;;;;;;;6.72;3.42;;;;;;;2.47;76.14;101411.53;5016026;28;20050;-74
2021/03/20 00:20:40;;;;;;;9.35;4.10;;;;;;;2.40;75.96;101412.44;5015561;28;20313;-73
2021/03/20 00:23:07;;;;;;;6.80;3.70;;;;;;;2.42;76.33;101403.66;5015851;28;20446;-72
2021/03/20 00:25:34;;;;;;;7.35;3.72;;;;;;;2.26;76.64;101394.97;5016465;28;20124;-72
2021/03/20 00:28:01;;;;;;;7.22;4.00;;;;;;;2.41;76.26;101414.19;5016354;28;20053;-74
2021/03/20 00:30:28;;;;;;;6.45;4.10;;;;;;;2.30;76.56;101412.50;5014914;28;20383;-74
2021/03/20 00:32:54;;;;;;;8.60;3.67;;;;;;;2.32;76.47;101409.84;5016269;28;20348;-74
2021/03/20 00:35:22;;;;;;;6.05;3.15;;;;;;;2.23;76.95;101396.75;5016016;28;20050;-75
2021/03/20 00:37:49;;;;;;;6.45;3.47;;;;;;;2.20;77.50;101413.44;5015852;28;20593;-73
2021/03/20 00:40:21;;;;;;;6.40;3.58;;;;;;;2.09;77.85;101405.63;5015852;28;20192;-74
2021/03/20 00:42:47;;;;;;;5.13;3.38;;;;;;;2.07;77.75;101410.00;5016032;28;20053;-73
2021/03/20 00:45:15;;;;;;;5.07;3.45;;;;;;;1.89;78.17;101409.22;5015757;28;20061;-72
2021/03/20 00:47:42;;;;;;;6.65;3.63;;;;;;;1.79;78.42;101414.53;5014881;28;20050;-73
2021/03/20 00:50:10;;;;;;;6.30;3.30;;;;;;;1.76;78.94;101415.41;5014985;28;20100;-72
2021/03/20 00:52:37;;;;;;;4.75;3.47;;;;;;;1.67;78.98;101403.16;5015895;28;20058;-72
2021/03/20 00:55:04;;;;;;;5.50;3.22;;;;;;;1.67;78.84;101415.44;5014607;28;20061;-73
2021/03/20 00:57:30;;;;;;;6.28;3.85;;;;;;;1.59;78.92;101423.38;5015652;28;20431;-72
2021/03/20 00:59:57;;;;;;;8.35;3.78;;;;;;;1.49;78.93;101415.50;5014417;28;20436;-74
2021/03/20 01:02:23;;;;;;;5.00;3.47;;;;;;;1.45;79.09;101424.28;5015405;28;20435;-74
2021/03/20 01:04:49;;;;;;;8.50;4.07;;;;;;;1.41;79.45;101421.69;5015761;28;20049;-73
2021/03/20 01:07:16;;;;;;;7.47;3.38;;;;;;;1.38;79.68;101430.44;5015921;28;20081;-74
2021/03/20 01:09:42;;;;;;;7.15;3.88;;;;;;;1.39;80.00;101434.84;5015564;28;20058;-73
2021/03/20 01:12:08;;;;;;;9.75;3.92;;;;;;;1.28;79.91;101434.84;5015889;28;20058;-73
2021/03/20 01:14:34;;;;;;;6.63;4.85;;;;;;;1.26;80.07;101438.38;5016131;28;20061;-74
2021/03/20 01:17:00;;;;;;;7.05;3.95;;;;;;;1.23;80.00;101433.97;5016223;28;20100;-74
2021/03/20 01:19:27;;;;;;;5.13;3.45;;;;;;;1.18;80.22;101427.84;5015477;28;20046;-73
2021/03/20 01:21:53;;;;;;;5.47;3.50;;;;;;;1.12;80.07;101426.13;4998106;28;20718;-73
2021/03/20 01:24:19;;;;;;;9.70;3.90;;;;;;;1.10;80.67;101432.25;5015487;28;20054;-75
2021/03/20 01:26:46;;;;;;;6.80;3.80;;;;;;;0.97;80.70;101427.00;5015233;28;20108;-73
2021/03/20 01:29:12;;;;;;;8.93;3.85;;;;;;;1.00;81.09;101431.38;5015158;28;20046;-74
2021/03/20 01:31:39;;;;;;;7.63;4.43;;;;;;;0.92;81.13;101437.53;5015198;28;20069;-75
2021/03/20 01:34:05;;;;;;;6.78;4.20;;;;;;;0.88;80.87;101438.38;5015540;28;20061;-74
2021/03/20 01:36:31;;;;;;;7.47;3.78;;;;;;;0.87;81.30;101436.63;5015202;28;20054;-74
2021/03/20 01:38:57;;;;;;;6.10;3.95;;;;;;;0.87;80.85;101435.78;5014285;28;20078;-73
2021/03/20 01:41:25;;;;;;;8.13;4.00;;;;;;;0.79;81.61;101438.41;5015069;28;20049;-73
2021/03/20 01:43:52;;;;;;;6.97;4.72;;;;;;;0.83;80.78;101434.91;5013976;28;20069;-74
2021/03/20 01:46:43;;;;;;;8.73;4.28;;;;;;;0.76;81.17;101439.25;5014236;28;20160;-74
2021/03/20 01:49:17;;;;;;;6.30;3.95;;;;;;;0.64;82.12;101436.63;5014743;28;20045;-73
2021/03/20 01:51:54;;;;;;;5.65;4.15;;;;;;;0.55;81.83;101429.63;5014713;28;20446;-73
2021/03/20 01:54:21;;;;;;;8.65;4.35;;;;;;;0.60;81.65;101441.00;5017036;28;20063;-73
2021/03/20 01:56:50;;;;;;;7.25;4.10;;;;;;;0.57;82.29;101438.38;5017847;28;20410;-73
2021/03/20 01:59:17;;;;;;;6.70;4.30;;;;;;;0.53;81.91;101439.25;5018977;28;20069;-74
2021/03/20 02:01:43;;;;;;;9.10;4.45;;;;;;;0.51;82.23;101433.13;5019367;28;20054;-73
2021/03/20 02:04:10;;;;;;;16.52;4.63;;;;;;;0.49;81.88;101432.25;5018880;28;20057;-73
2021/03/20 02:06:36;;;;;;;7.18;4.45;;;;;;;0.48;82.52;101438.38;5019027;28;20058;-73
2021/03/20 02:09:07;;;;;;;6.10;4.13;;;;;;;0.50;81.85;101432.22;5018639;28;20509;-73
2021/03/20 02:12:04;;;;;;;7.75;4.43;;;;;;;0.46;82.47;101440.09;5017513;28;20103;-74
2021/03/20 02:15:01;;;;;;;5.88;4.47;;;;;;;0.46;81.77;101441.00;5018354;28;20054;-74
2021/03/20 02:17:52;;;;;;;6.55;4.03;;;;;;;0.40;82.89;101440.97;5017973;28;20325;-74
2021/03/20 02:20:28;;;;;;;14.00;4.15;;;;;;;0.44;82.92;101445.34;5018911;28;20057;-74
2021/03/20 02:23:12;;;;;;;14.18;4.60;;;;;;;0.37;83.15;101447.09;5020014;28;20054;-74
2021/03/20 02:26:02;;;;;;;9.07;4.72;;;;;;;0.40;82.84;101430.47;5018849;28;20053;-74
2021/03/20 02:28:59;;;;;;;8.80;4.47;;;;;;;0.37;82.83;101436.59;5018858;28;20084;-74
2021/03/20 02:31:59;;;;;;;7.88;4.45;;;;;;;0.43;83.15;101427.84;5018634;28;20100;-73
2021/03/20 02:34:28;;;;;;;12.57;4.50;;;;;;;0.21;82.94;101405.94;5018356;28;20046;-74
2021/03/20 02:37:19;;;;;;;7.15;4.63;;;;;;;0.28;83.23;101431.34;5018466;28;20428;-74
2021/03/20 02:40:10;;;;;;;7.60;4.95;;;;;;;0.33;83.35;101434.81;5018542;28;20122;-74
2021/03/20 02:42:42;;;;;;;8.45;4.43;;;;;;;0.23;83.80;101423.44;5018742;28;20052;-73
2021/03/20 02:45:18;;;;;;;6.70;4.32;;;;;;;0.28;83.79;101428.72;5018013;28;20096;-73
2021/03/20 02:48:02;;;;;;;7.95;4.60;;;;;;;0.35;83.46;101427.84;5018177;28;20054;-73
2021/03/20 02:50:51;;;;;;;7.45;4.38;;;;;;;0.45;83.45;101417.34;5018102;28;20045;-72
2021/03/20 02:53:23;;;;;;;7.55;5.00;;;;;;;0.53;83.34;101419.13;5018085;28;20064;-72
2021/03/20 02:55:54;;;;;;;8.20;4.82;;;;;;;0.59;82.99;101431.38;5018022;28;20053;-72
2021/03/20 02:58:47;;;;;;;5.50;4.43;;;;;;;0.65;82.79;101430.53;5017835;28;20050;-72
2021/03/20 03:01:18;;;;;;;7.35;4.45;;;;;;;0.57;83.07;101430.50;4998120;28;20050;-72
2021/03/20 03:03:47;;;;;;;7.15;4.60;;;;;;;0.57;83.27;101429.63;4997048;28;20138;-72
2021/03/20 03:06:31;;;;;;;9.40;4.82;;;;;;;0.62;83.20;101431.38;4998113;28;20513;-72
2021/03/20 03:09:11;;;;;;;7.05;4.57;;;;;;;0.71;83.16;101432.25;4998089;28;20057;-72
2021/03/20 03:11:49;;;;;;;6.00;4.55;;;;;;;0.62;83.88;101439.28;4998042;28;20054;-72
2021/03/20 03:14:22;;;;;;;8.70;4.88;;;;;;;0.62;83.78;101434.03;4996950;28;20352;-72
2021/03/20 03:16:52;;;;;;;6.45;4.35;;;;;;;0.52;84.42;101429.63;4996939;28;20062;-72
2021/03/20 03:19:31;;;;;;;11.25;5.55;;;;;;;0.58;83.83;101434.88;4996806;28;20060;-73
2021/03/20 03:22:01;;;;;;;10.50;5.25;;;;;;;0.46;83.59;101419.97;4998074;28;20050;-72
2021/03/20 03:24:30;;;;;;;8.30;5.53;;;;;;;0.51;83.81;101436.63;4997715;28;20349;-73
2021/03/20 03:27:06;;;;;;;11.43;5.40;;;;;;;0.47;84.09;101429.63;4997853;28;20093;-72
2021/03/20 03:29:34;;;;;;;10.13;5.20;;;;;;;0.44;84.37;101439.25;4997548;28;20432;-72
2021/03/20 03:32:19;;;;;;;7.50;4.93;;;;;;;0.46;84.17;101437.47;4997737;28;20105;-73
2021/03/20 03:35:06;;;;;;;8.48;5.60;;;;;;;0.36;84.17;101424.34;4997654;28;20042;-73
2021/03/20 03:37:42;;;;;;;6.40;5.00;;;;;;;0.40;84.37;101438.34;4999084;28;20061;-71
2021/03/20 03:40:15;;;;;;;9.57;5.15;;;;;;;0.34;84.55;101446.22;4999917;28;20104;-74
2021/03/20 03:42:41;;;;;;;10.52;5.10;;;;;;;0.33;84.75;101449.72;4996926;28;20046;-74
2021/03/20 03:45:11;;;;;;;11.73;5.40;;;;;;;0.32;84.62;101443.59;4996698;28;20511;-74
2021/03/20 03:47:38;;;;;;;10.88;5.65;;;;;;;0.31;84.39;101438.31;5000885;28;20046;-74
2021/03/20 03:50:10;;;;;;;8.18;5.32;;;;;;;0.18;84.58;101430.44;4998125;28;20125;-74
2021/03/20 03:52:36;;;;;;;10.68;4.78;;;;;;;0.14;85.04;101431.28;4997191;28;20046;-73
2021/03/20 03:55:05;;;;;;;11.43;6.38;;;;;;;0.14;84.66;101444.41;4997225;28;20065;-73
2021/03/20 03:58:03;;;;;;;8.55;5.65;;;;;;;0.13;84.97;101448.78;4997216;28;20054;-73
2021/03/20 04:00:48;;;;;;;9.20;5.70;;;;;;;0.04;85.58;101450.53;5011664;28;20046;-73
2021/03/20 04:03:38;;;;;;;6.00;4.90;;;;;;;0.04;85.12;101458.41;5016886;28;20050;-71
2021/03/20 04:06:21;;;;;;;8.40;5.68;;;;;;;0.03;84.91;101452.25;5016674;28;20057;-73
2021/03/20 04:09:11;;;;;;;8.00;5.43;;;;;;;0.01;85.65;101456.63;5015900;28;20053;-73
2021/03/20 04:12:08;;;;;;;9.82;5.38;;;;;;;-0.06;85.31;101458.34;5016767;28;20056;-73
2021/03/20 04:14:42;;;;;;;8.38;5.55;;;;;;;-0.18;85.70;101458.28;5016805;28;20112;-73
2021/03/20 04:17:35;;;;;;;11.30;6.00;;;;;;;-0.16;85.69;101473.16;5015823;28;20050;-73
2021/03/20 04:20:34;;;;;;;9.65;5.30;;;;;;;-0.20;84.98;101465.28;5016530;28;20104;-73
2021/03/20 04:23:25;;;;;;;9.60;5.53;;;;;;;-0.16;85.29;101483.66;5016273;28;20046;-73
2021/03/20 04:26:20;;;;;;;10.02;5.63;;;;;;;-0.32;85.37;101480.09;5015087;28;20104;-73
2021/03/20 04:28:58;;;;;;;6.25;5.38;;;;;;;-0.34;85.48;101478.31;5016582;28;20053;-73
2021/03/20 04:31:36;;;;;;;9.70;5.63;;;;;;;-0.33;85.79;101493.22;5016041;28;20347;-73
2021/03/20 04:34:05;;;;;;;11.75;6.15;;;;;;;-0.30;86.16;101499.34;5016136;28;20358;-73
2021/03/20 04:37:00;;;;;;;9.00;6.28;;;;;;;-0.31;85.47;101500.22;5016324;28;20060;-73
2021/03/20 04:39:31;;;;;;;9.52;5.32;;;;;;;-0.38;85.79;101487.06;5015108;28;20069;-72
2021/03/20 04:42:14;;;;;;;9.60;5.70;;;;;;;-0.39;86.27;101490.56;5015964;28;20054;-72
2021/03/20 04:44:41;;;;;;;9.43;6.28;;;;;;;-0.43;85.70;101490.50;5015604;28;20431;-72
2021/03/20 04:47:16;;;;;;;8.65;6.22;;;;;;;-0.36;86.10;101504.56;5015892;28;20431;-72
2021/03/20 04:49:57;;;;;;;12.82;6.50;;;;;;;-0.46;86.37;101500.13;5015789;28;20347;-72
2021/03/20 04:52:41;;;;;;;10.65;5.82;;;;;;;-0.52;86.39;101495.72;5015883;28;20061;-72
2021/03/20 04:55:10;;;;;;;11.85;6.70;;;;;;;-0.56;86.96;101489.56;5014723;28;20054;-71
2021/03/20 04:57:45;;;;;;;12.82;6.25;;;;;;;-0.52;86.37;101493.09;5015664;28;20104;-72
2021/03/20 05:00:23;;;;;;;15.35;7.35;;;;;;;-0.55;86.32;101495.69;5015764;28;20390;-72
2021/03/20 05:03:20;;;;;;;13.95;6.90;;;;;;;-0.63;86.42;101500.91;5015594;28;20140;-72
2021/03/20 05:05:50;;;;;;;12.02;6.70;;;;;;;-0.63;86.70;101492.13;5015747;28;20096;-73
2021/03/20 05:08:35;;;;;;;11.23;6.93;;;;;;;-0.64;86.32;101495.63;5015943;28;20053;-73
2021/03/20 05:11:20;;;;;;;11.18;7.07;;;;;;;-0.69;86.08;101482.50;5015437;28;20046;-73
2021/03/20 05:13:53;;;;;;;14.65;7.72;;;;;;;-0.70;87.11;101483.38;5015626;28;20440;-73
2021/03/20 05:16:19;;;;;;;13.13;7.65;;;;;;;-0.63;86.95;101487.78;5014602;28;20073;-73
2021/03/20 05:18:51;;;;;;;13.30;8.55;;;;;;;-0.69;87.02;101490.34;5015617;28;20062;-74
2021/03/20 05:21:23;;;;;;;13.02;8.60;;;;;;;-0.71;87.00;101489.47;5015516;28;20046;-74
2021/03/20 05:23:53;;;;;;;14.57;8.30;;;;;;;-0.76;87.06;101481.56;5015523;28;20412;-73
2021/03/20 05:26:20;;;;;;;22.38;9.52;;;;;;;-0.66;86.61;101486.88;5015454;28;20049;-72
2021/03/20 05:28:46;;;;;;;13.45;8.65;;;;;;;-0.73;87.10;101497.31;5015488;28;20069;-72
2021/03/20 05:31:12;;;;;;;14.55;8.93;;;;;;;-0.71;86.61;101485.09;5013990;28;20046;-72
2021/03/20 05:33:41;;;;;;;12.93;8.40;;;;;;;-0.77;86.09;101490.28;5015277;28;20056;-72
2021/03/20 05:36:07;;;;;;;16.95;9.77;;;;;;;-0.84;86.44;101491.09;5015120;28;20062;-72
2021/03/20 05:38:35;;;;;;;18.92;10.00;;;;;;;-0.80;86.45;101489.38;5015186;28;20045;-72
2021/03/20 05:41:18;;;;;;;13.63;9.45;;;;;;;-0.89;87.38;101483.22;5015077;28;20053;-73
2021/03/20 05:44:16;;;;;;;13.32;9.70;;;;;;;-0.84;86.33;101498.97;5014297;28;20064;-72
2021/03/20 05:46:52;;;;;;;12.93;9.07;;;;;;;-0.92;87.35;101496.31;5015067;28;20112;-72
2021/03/20 05:49:35;;;;;;;13.85;9.30;;;;;;;-0.93;87.01;101505.00;5015011;28;20129;-72
2021/03/20 05:52:08;;;;;;;14.60;10.25;;;;;;;-0.93;87.36;101493.66;5014236;28;20053;-72
2021/03/20 05:55:01;;;;;;;16.70;10.45;;;;;;;-0.99;87.47;101503.22;5015259;28;20072;-72
2021/03/20 05:57:59;;;;;;;15.57;10.30;;;;;;;-0.95;87.00;101501.50;5015284;28;20058;-71
2021/03/20 06:00:39;;;;;;;14.75;10.45;;;;;;;-0.92;87.21;101498.03;5000557;28;20054;-72
2021/03/20 06:03:08;;;;;;;15.38;9.90;;;;;;;-0.88;86.87;101495.44;4995425;28;20061;-72
2021/03/20 06:05:42;;;;;;;16.00;10.70;;;;;;;-0.90;87.05;101493.69;4997306;28;20110;-72
2021/03/20 06:08:42;;;;;;;16.75;10.73;;;;;;;-0.88;86.86;101492.84;5004622;28;20057;-72
2021/03/20 06:11:24;;;;;;;16.38;10.88;;;;;;;-0.88;86.57;101503.31;4997655;28;20055;-72
2021/03/20 06:13:56;;;;;;;16.05;11.35;;;;;;;-0.91;87.01;101497.16;4995578;28;20050;-74
2021/03/20 06:16:27;;;;;;;15.98;10.82;;;;;;;-0.88;87.23;101510.31;4994607;28;20058;-71
2021/03/20 06:19:15;;;;;;;21.33;11.85;;;;;;;-0.85;87.13;101520.81;4994381;28;20062;-72
2021/03/20 06:21:47;;;;;;;17.42;12.13;;;;;;;-0.82;87.76;101529.59;4995277;28;20052;-72
2021/03/20 06:24:43;;;;;;;21.20;11.75;;;;;;;-0.75;86.58;101535.78;4995369;28;20054;-72
2021/03/20 06:27:18;;;;;;;15.43;11.18;;;;;;;-0.77;87.17;101537.47;4995439;28;20065;-72
2021/03/20 06:30:01;;;;;;;15.27;10.48;;;;;;;-0.67;86.70;101533.19;4995415;28;20340;-72
2021/03/20 06:32:34;;;;;;;17.33;11.02;;;;;;;-0.65;86.57;101536.69;4995053;28;20141;-72
2021/03/20 06:35:07;;;;;;;16.50;11.15;;;;;;;-0.76;87.17;101523.50;4995353;28;20454;-72
2021/03/20 06:37:37;;;;;;;18.67;12.77;;;;;;;-0.61;87.18;101540.25;4995407;28;20061;-72
2021/03/20 06:40:20;;;;;;;19.42;12.98;;;;;;;-0.62;87.23;101541.97;4997809;28;20050;-72
2021/03/20 06:42:47;;;;;;;15.07;11.25;;;;;;;-0.54;87.35;101547.28;4998530;28;20050;-72
2021/03/20 06:45:26;;;;;;;14.38;11.30;;;;;;;-0.50;86.75;101545.56;4998366;28;20058;-72
2021/03/20 06:48:05;;;;;;;20.15;11.88;;;;;;;-0.47;86.92;101549.09;4998699;28;20078;-72
2021/03/20 06:50:36;;;;;;;16.98;11.70;;;;;;;-0.38;86.92;101555.25;4998555;28;20325;-75
2021/03/20 06:53:06;;;;;;;19.40;11.48;;;;;;;-0.32;86.44;101555.31;4997153;28;20145;-76
2021/03/20 06:55:44;;;;;;;17.88;12.07;;;;;;;-0.29;86.65;101557.94;4998437;28;20050;-74
2021/03/20 06:58:20;;;;;;;21.30;12.70;;;;;;;-0.33;86.45;101549.16;4997112;28;20094;-74
2021/03/20 07:00:47;;;;;;;19.85;12.27;;;;;;;-0.31;86.72;101555.31;5015057;28;20046;-75
2021/03/20 07:03:13;;;;;;;19.40;12.52;;;;;;;-0.23;86.74;101576.34;5018127;28;20131;-73
2021/03/20 07:05:56;;;;;;;16.98;12.45;;;;;;;-0.16;86.97;101565.03;5017614;28;20066;-73
2021/03/20 07:08:28;;;;;;;19.23;11.35;;;;;;;-0.04;85.34;101576.47;5015704;28;20057;-74
2021/03/20 07:10:56;;;;;;;16.50;10.02;;;;;;;0.03;84.08;101573.00;5013133;28;20046;-73
2021/03/20 07:13:43;;;;;;;12.85;8.82;;;;;;;0.16;82.79;101576.56;5014468;28;20333;-75
2021/03/20 07:16:12;;;;;;;11.98;8.10;;;;;;;0.18;81.76;101563.47;5015945;28;20108;-74
2021/03/20 07:18:49;;;;;;;9.70;5.55;;;;;;;0.33;81.24;101589.78;5010561;28;20266;-75
2021/03/20 07:21:23;;;;;;;10.82;6.72;;;;;;;0.34;78.81;101588.94;5017810;28;20068;-76
2021/03/20 07:24:09;;;;;;;9.35;6.25;;;;;;;0.37;77.86;101586.31;5017552;28;20112;-75
2021/03/20 07:26:52;;;;;;;12.32;6.57;;;;;;;0.53;76.20;101594.25;5017446;28;20136;-75
2021/03/20 07:29:36;;;;;;;8.77;6.38;;;;;;;0.60;76.50;101601.28;5017608;28;20057;-75
2021/03/20 07:32:02;;;;;;;11.57;6.15;;;;;;;0.57;75.31;101601.28;5017283;28;20050;-74
2021/03/20 07:34:32;;;;;;;9.75;5.53;;;;;;;0.63;76.12;101611.81;5017257;28;20123;-74
2021/03/20 07:37:25;;;;;;;10.40;5.68;;;;;;;0.70;74.54;101622.34;5017158;28;20133;-74
2021/03/20 07:39:55;;;;;;;9.18;5.10;;;;;;;0.75;72.98;101620.59;5017346;28;20052;-78
2021/03/20 07:42:42;;;;;;;14.55;5.95;;;;;;;0.79;73.11;101617.13;5015896;28;20133;-76
2021/03/20 07:45:29;;;;;;;11.70;5.78;;;;;;;0.85;71.57;101618.88;5012750;28;20575;-76
2021/03/20 07:47:55;;;;;;;19.13;6.80;;;;;;;0.84;71.11;101623.28;5010004;28;20049;-75
2021/03/20 07:50:31;;;;;;;13.18;6.22;;;;;;;0.86;70.30;101623.28;5016077;28;20053;-76
2021/03/20 07:53:22;;;;;;;9.75;5.85;;;;;;;0.87;71.43;101606.63;5017212;28;20054;-75
2021/03/20 07:55:52;;;;;;;13.05;5.82;;;;;;;1.01;70.23;101617.16;5016889;28;20052;-74
2021/03/20 07:58:26;;;;;;;17.38;5.80;;;;;;;1.00;68.50;101610.16;5017060;28;20174;-71
2021/03/20 08:00:57;;;;;;;9.02;5.28;;;;;;;1.08;69.10;101613.69;5016986;28;20054;-72
2021/03/20 08:03:27;;;;;;;10.20;5.60;;;;;;;1.17;67.00;101624.22;5013741;28;20129;-76
2021/03/20 08:06:12;;;;;;;9.52;4.93;;;;;;;1.22;67.56;101622.47;5015734;28;20045;-74
2021/03/20 08:08:38;;;;;;;10.90;5.57;;;;;;;1.30;66.48;101621.63;5016568;28;20068;-77
2021/03/20 08:11:22;;;;;;;13.00;4.60;;;;;;;1.35;66.32;101622.47;5013915;28;20042;-73
2021/03/20 08:13:53;;;;;;;8.45;4.88;;;;;;;1.41;66.38;101616.38;4996631;28;20050;-73
2021/03/20 08:16:20;;;;;;;;;;;;;;;1.49;66.11;101612.84;4997938;28;20050;-72
2021/03/20 08:18:51;;;;;;;8.45;3.78;;;;;;;1.51;64.75;101606.72;5032273;28;19933;-73
2021/03/20 08:21:26;;;;;;;;;;;;;;;1.59;64.38;101607.59;5002833;28;20060;-73
2021/03/20 08:24:30;;;;;;;4.93;3.08;;;;;;;1.66;62.64;101606.72;4999367;28;19921;-72
2021/03/20 08:27:25;;;;;;;8.10;3.60;;;;;;;1.73;63.19;101604.94;5005335;28;20046;-76
2021/03/20 08:30:17;;;;;;;8.63;3.67;;;;;;;1.87;62.80;101604.94;4997160;28;20053;-76
2021/03/20 08:33:09;;;;;;;6.78;3.13;;;;;;;1.85;60.86;101606.72;4996766;28;20418;-72
2021/03/20 08:35:50;;;;;;;7.65;3.40;;;;;;;1.86;60.22;101603.19;4997011;28;20077;-73
2021/03/20 08:38:22;;;;;;;6.35;2.95;;;;;;;1.87;59.07;101603.16;4996492;28;20065;-72
2021/03/20 08:41:00;;;;;;;6.43;2.08;;;;;;;1.88;57.87;101601.41;4996737;28;20096;-72
2021/03/20 08:43:38;;;;;;;5.35;2.40;;;;;;;1.88;56.55;101602.31;4996612;28;20058;-75
2021/03/20 08:46:30;;;;;;;5.72;2.88;;;;;;;1.84;58.35;101605.81;4996177;28;20061;-73
2021/03/20 08:49:19;;;;;;;6.25;2.95;;;;;;;1.80;57.72;101608.47;4996754;28;20140;-73
2021/03/20 08:52:13;;;;;;;7.72;2.60;;;;;;;1.88;57.40;101606.69;4996430;28;20421;-73
2021/03/20 08:55:06;;;;;;;4.57;2.55;;;;;;;1.90;56.82;101615.44;4996144;28;20376;-76
2021/03/20 08:57:51;;;;;;;4.43;2.70;;;;;;;2.05;57.54;101618.97;4996512;28;20047;-75
2021/03/20 09:00:26;;;;;;;5.45;2.30;;;;;;;1.98;56.69;101605.81;5009986;28;20049;-74
2021/03/20 09:02:55;;;;;;;5.95;2.88;;;;;;;2.12;57.72;101631.25;5015670;28;20061;-76
2021/03/20 09:05:37;;;;;;;4.45;2.38;;;;;;;2.16;57.27;101628.59;5016760;28;20050;-75
2021/03/20 09:08:13;;;;;;;6.93;3.45;;;;;;;2.33;57.34;101625.03;5018070;28;20054;-77
2021/03/20 09:10:44;;;;;;;4.65;2.40;;;;;;;2.48;57.86;101615.31;5010325;28;20439;-76
2021/03/20 09:13:32;;;;;;;3.22;2.10;;;;;;;2.57;57.16;101617.94;5014579;28;20049;-76
2021/03/20 09:16:20;;;;;;;7.38;2.80;;;;;;;2.60;55.11;101601.22;5016447;28;20460;-74
2021/03/20 09:18:47;;;;;;;5.95;2.70;;;;;;;2.68;54.50;101620.50;4998083;28;20062;-76
2021/03/20 09:21:15;;;;;;;9.05;2.80;;;;;;;2.66;54.94;101620.50;5005727;28;20049;-71
2021/03/20 09:23:47;;;;;;;5.78;2.60;;;;;;;2.71;54.02;101625.75;5016424;28;20053;-74
2021/03/20 09:26:39;;;;;;;5.85;2.85;;;;;;;2.74;53.76;101622.22;4995646;28;20046;-74
2021/03/20 09:29:25;;;;;;;7.72;2.70;;;;;;;2.74;53.87;101615.22;5012531;28;20364;-74
2021/03/20 09:31:55;;;;;;;6.43;2.70;;;;;;;2.97;54.25;101616.84;5015325;28;20049;-77
2021/03/20 09:34:24;;;;;;;7.05;2.60;;;;;;;3.15;53.05;101615.00;5015441;28;20129;-75
2021/03/20 09:36:51;;;;;;;7.88;3.08;;;;;;;3.22;54.91;101624.63;5013838;28;20058;-74
2021/03/20 09:39:46;;;;;;;6.65;2.92;;;;;;;3.21;52.45;101618.44;5013927;28;20062;-74
2021/03/20 09:42:27;;;;;;;5.18;2.47;;;;;;;3.22;52.70;101624.63;5015350;28;20052;-73
2021/03/20 09:44:57;;;;;;;4.57;2.38;;;;;;;3.40;52.03;101626.25;5014879;28;20062;-73
2021/03/20 09:47:46;;;;;;;4.07;2.65;;;;;;;3.60;52.75;101628.72;5015145;28;20054;-74
2021/03/20 09:50:19;;;;;;;11.02;2.90;;;;;;;3.70;51.90;101629.50;5014256;28;20125;-75
2021/03/20 09:53:09;;;;;;;6.75;3.63;;;;;;;3.66;53.09;101631.31;5015004;28;20064;-74
2021/03/20 09:55:44;;;;;;;6.45;3.42;;;;;;;3.75;53.31;101622.44;5014444;28;20053;-80
2021/03/20 09:58:20;;;;;;;5.00;2.88;;;;;;;3.93;53.44;101631.94;5016532;28;20054;-77
2021/03/20 10:01:05;;;;;;;6.63;3.10;;;;;;;3.94;51.89;101636.34;5012955;28;20046;-78
2021/03/20 10:03:57;;;;;;;5.72;2.95;;;;;;;4.12;53.74;101630.88;5023191;28;20049;-81
2021/03/20 10:06:32;;;;;;;6.18;3.05;;;;;;;4.24;51.92;101638.69;5016988;28;20050;-78
2021/03/20 10:09:07;;;;;;;5.10;2.78;;;;;;;4.23;50.92;101625.50;5014745;28;20053;-76
2021/03/20 10:11:54;;;;;;;7.70;2.70;;;;;;;4.41;49.43;101629.72;5015097;28;20049;-75
2021/03/20 10:14:46;;;;;;;8.48;3.03;;;;;;;4.48;49.13;101628.75;5016591;28;20128;-76
2021/03/20 10:17:22;;;;;;;8.75;3.65;;;;;;;4.37;48.42;101623.59;5015850;28;20399;-79
2021/03/20 10:20:11;;;;;;;5.75;2.70;;;;;;;4.59;48.92;101625.97;5018876;28;20116;-86
2021/03/20 10:22:59;;;;;;;6.53;2.83;;;;;;;4.60;46.79;101627.72;5018651;28;20050;-85
2021/03/20 10:25:25;;;;;;;6.63;2.72;;;;;;;4.43;48.57;101596.19;5018099;28;20116;-78
2021/03/20 10:28:06;;;;;;;8.95;3.17;;;;;;;4.70;47.27;101618.78;5018737;28;20054;-76
2021/03/20 10:30:36;;;;;;;5.45;2.95;;;;;;;4.71;48.70;101615.22;5018251;28;20089;-76
2021/03/20 10:33:08;;;;;;;5.53;2.78;;;;;;;4.85;46.55;101609.75;5018304;28;20497;-75
2021/03/20 10:35:38;;;;;;;5.45;2.70;;;;;;;5.07;46.47;101614.72;5023311;28;20061;-80
2021/03/20 10:38:26;;;;;;;7.85;3.35;;;;;;;5.09;48.47;101612.06;5036358;28;20107;-78
2021/03/20 10:41:07;;;;;;;5.57;2.72;;;;;;;5.18;46.82;101603.13;5008839;28;20042;-77
2021/03/20 10:43:42;;;;;;;6.80;2.80;;;;;;;5.31;43.55;101599.38;5017715;28;20115;-77
2021/03/20 10:46:16;;;;;;;3.95;2.40;;;;;;;5.18;40.23;101600.47;5018155;28;20197;-77
2021/03/20 10:48:43;;;;;;;7.68;2.33;;;;;;;5.32;36.48;101590.53;5018724;28;20084;-77
2021/03/20 10:51:09;;;;;;;3.63;2.35;;;;;;;5.60;39.40;101590.06;5026863;28;20077;-76
2021/03/20 10:54:03;;;;;;;4.10;2.58;;;;;;;5.79;39.69;101588.00;5035150;28;20056;-78
2021/03/20 10:56:36;;;;;;;5.72;2.53;;;;;;;5.82;41.38;101573.78;5026541;28;20065;-79
2021/03/20 10:59:11;;;;;;;4.88;2.70;;;;;;;5.71;39.78;101576.63;5018304;28;20075;-77
2021/03/20 11:01:38;;;;;;;3.90;2.55;;;;;;;5.71;39.40;101579.28;5018042;28;20097;-76
2021/03/20 11:04:05;;;;;;;8.73;3.03;;;;;;;5.67;38.80;101561.72;5017658;28;20135;-76
2021/03/20 11:06:32;;;;;;;8.02;3.38;;;;;;;5.87;40.54;101577.25;5017683;28;20424;-76
2021/03/20 11:09:04;;;;;;;5.55;2.90;;;;;;;5.67;39.37;101565.22;5018508;28;20085;-76
2021/03/20 11:11:32;;;;;;;8.75;2.75;;;;;;;5.52;39.82;101569.03;5018187;28;20054;-74
2021/03/20 11:14:15;;;;;;;5.82;2.75;;;;;;;5.44;39.28;101573.56;5019692;28;20100;-76
2021/03/20 11:16:46;;;;;;;6.75;2.72;;;;;;;5.62;40.92;101566.22;4998227;28;20495;-76
2021/03/20 11:19:12;;;;;;;7.47;2.83;;;;;;;5.94;41.67;101572.72;4998012;28;20092;-75
2021/03/20 11:21:43;;;;;;;8.77;3.80;;;;;;;6.10;41.99;101563.59;5002024;28;20423;-74
2021/03/20 11:24:35;;;;;;;11.27;2.97;;;;;;;6.03;41.53;101561.06;5013930;28;20053;-74
2021/03/20 11:27:22;;;;;;;7.43;3.15;;;;;;;6.19;41.86;101559.88;5016801;28;20054;-75
2021/03/20 11:29:53;;;;;;;6.00;3.05;;;;;;;6.31;40.60;101560.56;5010504;28;20046;-75
2021/03/20 11:32:26;;;;;;;7.22;3.38;;;;;;;6.52;40.83;101549.47;5016474;28;20050;-74
2021/03/20 11:35:02;;;;;;;5.68;3.08;;;;;;;6.54;39.66;101544.13;5017491;28;20141;-77
2021/03/20 11:37:29;;;;;;;3.78;2.70;;;;;;;6.66;39.30;101556.25;5017435;28;20057;-75
2021/03/20 11:39:59;;;;;;;7.95;3.85;;;;;;;6.65;38.33;101558.03;5016273;28;20089;-76
2021/03/20 11:42:36;;;;;;;5.25;2.42;;;;;;;6.76;36.03;101557.78;5017071;28;20440;-74
2021/03/20 11:45:07;;;;;;;5.53;2.20;;;;;;;6.94;35.98;101547.66;5016721;28;20473;-75
2021/03/20 11:47:36;;;;;;;5.57;2.17;;;;;;;7.01;36.04;101546.63;5016260;28;20049;-77
2021/03/20 11:50:15;;;;;;;5.85;2.25;;;;;;;7.16;34.84;101545.38;5017546;28;20121;-74
2021/03/20 11:52:49;;;;;;;4.28;2.05;;;;;;;7.40;35.89;101553.63;5016925;28;20129;-75
2021/03/20 11:55:32;;;;;;;6.13;2.63;;;;;;;7.36;35.84;101543.13;5017155;28;20081;-76
2021/03/20 11:58:02;;;;;;;4.05;2.28;;;;;;;7.43;35.64;101547.38;5016714;28;20050;-74
2021/03/20 12:00:44;;;;;;;5.80;2.15;;;;;;;7.57;35.29;101539.06;5016859;28;20096;-75
2021/03/20 12:03:33;;;;;;;5.63;3.05;;;;;;;7.70;36.54;101543.13;5017073;28;20076;-73
2021/03/20 12:06:30;;;;;;;4.63;1.85;;;;;;;7.69;35.74;101549.34;5010320;28;20053;-75
2021/03/20 12:08:58;;;;;;;5.20;2.20;;;;;;;7.72;34.92;101546.63;5016860;28;20050;-75
2021/03/20 12:11:43;;;;;;;2.72;1.95;;;;;;;7.61;34.58;101546.03;5015604;28;20136;-78